createdAt,value
2018-12-11T00:00:54.544Z,1.33
2018-12-11T00:03:22.056Z,1.37
2018-12-11T00:05:49.606Z,1.47
2018-12-11T00:08:17.128Z,1.80
2018-12-11T00:10:44.667Z,1.80
2018-12-11T00:13:12.181Z,2.13
2018-12-11T00:15:39.725Z,1.77
2018-12-11T00:18:07.239Z,1.83
2018-12-11T00:20:34.780Z,2.03
2018-12-11T00:23:02.295Z,2.40
2018-12-11T00:25:29.839Z,2.23
2018-12-11T00:27:57.355Z,2.07
2018-12-11T00:30:24.978Z,1.93
2018-12-11T00:32:52.496Z,2.27
2018-12-11T00:35:20.046Z,2.53
2018-12-11T00:37:47.555Z,2.33
2018-12-11T00:40:15.099Z,2.17
2018-12-11T00:42:42.620Z,2.53
2018-12-11T00:45:10.247Z,2.07
2018-12-11T00:47:37.767Z,2.37
2018-12-11T00:50:06.374Z,2.67
2018-12-11T00:52:33.895Z,3.03
2018-12-11T00:55:01.438Z,2.70
2018-12-11T00:57:28.951Z,2.63
2018-12-11T00:59:56.511Z,2.43
2018-12-11T01:02:24.042Z,3.07
2018-12-11T01:04:51.583Z,2.30
2018-12-11T01:07:19.104Z,2.70
2018-12-11T01:09:46.660Z,2.60
2018-12-11T01:12:14.175Z,2.77
2018-12-11T01:14:41.715Z,2.77
2018-12-11T01:17:09.228Z,2.80
2018-12-11T01:19:36.755Z,3.30
2018-12-11T01:22:04.294Z,3.00
2018-12-11T01:24:31.820Z,2.63
2018-12-11T01:26:59.372Z,2.70
2018-12-11T01:29:26.888Z,2.50
2018-12-11T01:31:54.513Z,2.30
2018-12-11T01:34:22.027Z,2.47
2018-12-11T01:36:49.575Z,2.30
2018-12-11T01:39:17.095Z,2.00
2018-12-11T01:41:44.635Z,2.60
2018-12-11T01:44:12.147Z,2.87
2018-12-11T01:46:39.688Z,2.80
2018-12-11T01:49:07.207Z,2.50
2018-12-11T01:51:34.747Z,2.33
2018-12-11T01:54:02.263Z,2.80
2018-12-11T01:56:29.799Z,3.00
2018-12-11T01:58:57.311Z,2.80
2018-12-11T02:01:24.851Z,2.60
2018-12-11T02:03:52.367Z,2.93
2018-12-11T02:06:19.915Z,2.83
2018-12-11T02:08:47.434Z,2.77
2018-12-11T02:11:14.972Z,2.47
2018-12-11T02:13:42.486Z,3.07
2018-12-11T02:16:10.100Z,2.73
2018-12-11T02:18:37.655Z,2.50
2018-12-11T02:21:05.199Z,2.37
2018-12-11T02:23:32.732Z,3.00
2018-12-11T02:26:00.463Z,2.10
2018-12-11T02:28:28.003Z,2.07
2018-12-11T02:30:56.281Z,2.27
2018-12-11T02:33:23.805Z,2.63
2018-12-11T02:35:51.355Z,2.70
2018-12-11T02:38:18.872Z,2.30
2018-12-11T02:40:46.491Z,2.10
2018-12-11T02:43:14.017Z,2.20
2018-12-11T02:45:41.560Z,2.80
2018-12-11T02:48:09.108Z,2.87
2018-12-11T02:50:36.636Z,2.60
2018-12-11T02:53:04.179Z,2.83
2018-12-11T02:55:31.696Z,2.97
2018-12-11T02:57:59.241Z,2.90
2018-12-11T03:00:26.755Z,3.00
2018-12-11T03:02:54.295Z,2.57
2018-12-11T03:05:21.890Z,2.63
2018-12-11T03:07:49.436Z,2.77
2018-12-11T03:10:16.956Z,3.30
2018-12-11T03:12:44.502Z,3.27
2018-12-11T03:15:12.099Z,3.40
2018-12-11T03:17:39.643Z,3.53
2018-12-11T03:20:07.314Z,3.90
2018-12-11T03:22:34.861Z,3.67
2018-12-11T03:25:02.385Z,4.20
2018-12-11T03:27:29.941Z,3.20
2018-12-11T03:29:57.457Z,2.57
2018-12-11T03:32:25.005Z,2.90
2018-12-11T03:34:52.532Z,2.97
2018-12-11T03:37:20.070Z,2.80
2018-12-11T03:39:47.579Z,2.10
2018-12-11T03:42:15.123Z,3.30
2018-12-11T03:44:42.641Z,3.00
2018-12-11T03:47:10.189Z,2.37
2018-12-11T03:49:37.706Z,2.30
2018-12-11T03:52:05.299Z,2.60
2018-12-11T03:54:32.899Z,2.40
2018-12-11T03:57:00.428Z,2.20
2018-12-11T03:59:27.975Z,2.80
2018-12-11T04:01:55.491Z,2.40
2018-12-11T04:04:23.033Z,2.60
2018-12-11T04:06:50.555Z,2.10
2018-12-11T04:09:18.087Z,2.07
2018-12-11T04:11:45.611Z,2.10
2018-12-11T04:14:13.152Z,2.30
2018-12-11T04:16:40.672Z,2.30
2018-12-11T04:19:08.212Z,2.77
2018-12-11T04:21:35.728Z,2.43
2018-12-11T04:24:03.267Z,2.63
2018-12-11T04:26:30.783Z,3.37
2018-12-11T04:28:58.345Z,3.00
2018-12-11T04:31:25.860Z,2.70
2018-12-11T04:33:53.673Z,2.23
2018-12-11T04:36:21.184Z,2.47
2018-12-11T04:38:48.724Z,1.97
2018-12-11T04:41:16.245Z,2.23
2018-12-11T04:43:43.784Z,2.13
2018-12-11T04:46:11.377Z,2.80
2018-12-11T04:48:38.997Z,2.50
2018-12-11T04:51:06.512Z,2.40
2018-12-11T04:53:34.072Z,2.60
2018-12-11T04:56:01.590Z,2.63
2018-12-11T04:58:29.112Z,2.10
2018-12-11T05:00:57.236Z,2.10
2018-12-11T05:03:24.827Z,2.27
2018-12-11T05:05:52.380Z,2.60
2018-12-11T05:08:19.901Z,2.60
2018-12-11T05:10:47.443Z,2.63
2018-12-11T05:13:14.955Z,2.63
2018-12-11T05:15:42.519Z,2.80
2018-12-11T05:18:10.035Z,2.67
2018-12-11T05:20:37.583Z,2.73
2018-12-11T05:23:05.114Z,3.07
2018-12-11T05:25:32.671Z,3.13
2018-12-11T05:28:00.200Z,3.60
2018-12-11T05:30:27.755Z,3.13
2018-12-11T05:32:55.288Z,4.03
2018-12-11T05:35:22.829Z,2.90
2018-12-11T05:37:50.344Z,3.63
2018-12-11T05:40:17.895Z,3.47
2018-12-11T05:42:45.410Z,3.13
2018-12-11T05:45:12.958Z,2.90
2018-12-11T05:47:40.586Z,3.23
2018-12-11T05:50:08.207Z,2.97
2018-12-11T05:52:35.742Z,3.83
2018-12-11T05:55:04.050Z,3.40
2018-12-11T05:57:31.576Z,3.40
2018-12-11T05:59:59.132Z,4.00
2018-12-11T06:02:26.652Z,4.57
2018-12-11T06:04:54.199Z,3.83
2018-12-11T06:07:21.730Z,3.92
2018-12-11T06:09:49.278Z,4.20
2018-12-11T06:12:17.010Z,4.47
2018-12-11T06:14:44.564Z,4.30
2018-12-11T06:17:12.095Z,4.08
2018-12-11T06:19:39.624Z,4.90
2018-12-11T06:22:07.175Z,4.53
2018-12-11T06:24:34.700Z,4.95
2018-12-11T06:27:02.254Z,4.60
2018-12-11T06:29:29.773Z,4.30
2018-12-11T06:31:57.324Z,5.25
2018-12-11T06:34:24.849Z,5.43
2018-12-11T06:36:52.399Z,4.70
2018-12-11T06:39:19.918Z,5.17
2018-12-11T06:41:47.625Z,5.03
2018-12-11T06:44:15.167Z,5.40
2018-12-11T06:46:42.728Z,5.53
2018-12-11T06:49:10.260Z,5.85
2018-12-11T06:51:37.816Z,5.40
2018-12-11T06:54:05.342Z,5.72
2018-12-11T06:56:32.896Z,6.75
2018-12-11T06:59:00.419Z,6.28
2018-12-11T07:01:27.968Z,6.12
2018-12-11T07:03:55.762Z,5.72
2018-12-11T07:06:23.309Z,6.10
2018-12-11T07:08:51.534Z,7.30
2018-12-11T07:11:19.180Z,6.97
2018-12-11T07:13:46.708Z,7.55
2018-12-11T07:16:14.344Z,7.10
2018-12-11T07:18:41.965Z,8.05
2018-12-11T07:21:09.593Z,7.78
2018-12-11T07:23:37.188Z,6.75
2018-12-11T07:26:05.196Z,7.05
2018-12-11T07:28:32.716Z,7.62
2018-12-11T07:31:00.295Z,6.75
2018-12-11T07:33:27.815Z,8.15
2018-12-11T07:35:55.376Z,10.68
2018-12-11T07:38:22.899Z,19.80
2018-12-11T07:40:50.475Z,19.95
2018-12-11T07:43:18.020Z,16.40
2018-12-11T07:45:45.582Z,13.10
2018-12-11T07:48:13.131Z,15.43
2018-12-11T07:50:40.655Z,11.15
2018-12-11T07:53:08.210Z,6.65
2018-12-11T07:55:35.738Z,7.25
2018-12-11T07:58:03.383Z,7.72
2018-12-11T08:00:32.173Z,7.03
2018-12-11T08:03:00.059Z,7.12
2018-12-11T08:05:29.092Z,7.83
2018-12-11T08:07:56.768Z,7.40
2018-12-11T08:10:24.304Z,8.75
2018-12-11T08:12:51.855Z,8.08
2018-12-11T08:15:19.383Z,7.47
2018-12-11T08:17:46.959Z,7.70
2018-12-11T08:20:14.491Z,7.87
2018-12-11T08:22:42.055Z,7.10
2018-12-11T08:25:09.600Z,6.53
2018-12-11T08:27:37.151Z,7.07
2018-12-11T08:30:06.159Z,6.83
2018-12-11T08:32:36.439Z,6.53
2018-12-11T08:35:04.443Z,6.60
2018-12-11T08:37:32.018Z,7.92
2018-12-11T08:39:59.612Z,7.07
2018-12-11T08:42:27.224Z,6.70
2018-12-11T08:44:54.755Z,6.27
2018-12-11T08:47:22.304Z,6.37
2018-12-11T08:49:49.825Z,6.37
2018-12-11T08:52:17.387Z,5.90
2018-12-11T08:54:44.944Z,5.87
2018-12-11T08:57:12.494Z,6.45
2018-12-11T08:59:40.023Z,6.37
2018-12-11T09:02:07.580Z,5.95
2018-12-11T09:04:35.115Z,6.93
2018-12-11T09:07:02.668Z,6.22
2018-12-11T09:09:30.208Z,6.30
2018-12-11T09:11:57.765Z,5.83
2018-12-11T09:14:25.309Z,6.17
2018-12-11T09:16:52.860Z,6.50
2018-12-11T09:19:20.400Z,6.07
2018-12-11T09:21:47.924Z,6.43
2018-12-11T09:24:15.487Z,6.20
2018-12-11T09:26:43.011Z,6.50
2018-12-11T09:29:10.657Z,6.73
2018-12-11T09:31:38.216Z,6.20
2018-12-11T09:34:05.784Z,6.70
2018-12-11T09:36:34.262Z,7.13
2018-12-11T09:39:01.956Z,10.13
2018-12-11T09:41:29.696Z,9.00
2018-12-11T09:43:57.275Z,6.57
2018-12-11T09:46:24.913Z,5.87
2018-12-11T09:48:52.701Z,6.13
2018-12-11T09:51:20.259Z,5.53
2018-12-11T09:53:47.893Z,6.17
2018-12-11T09:56:15.488Z,5.80
2018-12-11T09:58:43.603Z,6.33
2018-12-11T10:01:11.362Z,5.63
2018-12-11T10:03:39.814Z,5.93
2018-12-11T10:06:07.574Z,6.47
2018-12-11T10:08:35.131Z,6.07
2018-12-11T10:11:02.661Z,5.67
2018-12-11T10:13:30.209Z,6.13
2018-12-11T10:15:57.747Z,6.90
2018-12-11T10:18:25.300Z,5.83
2018-12-11T10:20:52.815Z,5.90
2018-12-11T10:23:20.881Z,5.67
2018-12-11T10:25:48.523Z,5.87
2018-12-11T10:28:16.087Z,6.20
2018-12-11T10:30:47.527Z,5.90
2018-12-11T10:33:15.624Z,5.63
2018-12-11T10:35:43.144Z,5.37
2018-12-11T10:38:10.734Z,5.77
2018-12-11T10:40:38.292Z,6.00
2018-12-11T10:43:05.837Z,5.90
2018-12-11T10:45:33.356Z,5.17
2018-12-11T10:48:00.939Z,4.80
2018-12-11T10:50:28.464Z,4.70
2018-12-11T10:52:56.012Z,4.70
2018-12-11T10:55:23.566Z,4.77
2018-12-11T10:57:51.163Z,4.83
2018-12-11T11:00:24.422Z,5.97
2018-12-11T11:02:57.803Z,6.03
2018-12-11T11:05:34.629Z,4.77
2018-12-11T11:08:02.175Z,4.50
2018-12-11T11:10:29.960Z,4.23
2018-12-11T11:12:57.804Z,4.83
2018-12-11T11:15:25.660Z,4.70
2018-12-11T11:17:53.323Z,5.60
2018-12-11T11:20:20.921Z,6.03
2018-12-11T11:22:48.448Z,5.47
2018-12-11T11:25:16.056Z,5.00
2018-12-11T11:27:43.751Z,5.40
2018-12-11T11:30:11.474Z,4.83
2018-12-11T11:32:38.987Z,6.40
2018-12-11T11:35:08.815Z,5.27
2018-12-11T11:37:37.780Z,4.97
2018-12-11T11:40:05.805Z,4.90
2018-12-11T11:46:06.019Z,4.07
2018-12-11T11:48:34.507Z,4.07
2018-12-11T11:51:02.023Z,3.77
2018-12-11T11:53:29.560Z,6.30
2018-12-11T11:55:57.107Z,4.63
2018-12-11T11:58:24.625Z,4.50
2018-12-11T12:00:52.171Z,3.27
2018-12-11T12:03:19.701Z,4.37
2018-12-11T12:05:47.246Z,4.00
2018-12-11T12:08:14.771Z,4.47
2018-12-11T12:10:42.445Z,4.33
2018-12-11T12:13:09.967Z,4.50
2018-12-11T12:15:37.515Z,4.73
2018-12-11T12:18:05.043Z,4.50
2018-12-11T12:20:32.624Z,4.67
2018-12-11T12:23:00.479Z,4.60
2018-12-11T12:25:28.031Z,4.70
2018-12-11T12:27:55.547Z,4.27
2018-12-11T12:30:25.096Z,4.57
2018-12-11T12:32:52.628Z,4.97
2018-12-11T12:35:20.191Z,4.50
2018-12-11T12:37:47.746Z,4.13
2018-12-11T12:40:15.668Z,5.27
2018-12-11T12:42:43.220Z,5.67
2018-12-11T12:45:10.846Z,5.63
2018-12-11T12:47:38.466Z,6.33
2018-12-11T12:50:06.091Z,6.10
2018-12-11T12:52:33.615Z,5.90
2018-12-11T12:55:01.196Z,6.37
2018-12-11T12:57:28.743Z,5.50
2018-12-11T12:59:56.420Z,6.10
2018-12-11T13:02:23.969Z,5.00
2018-12-11T13:04:51.523Z,6.37
2018-12-11T13:07:19.177Z,6.80
2018-12-11T13:09:47.264Z,6.70
2018-12-11T13:12:14.800Z,6.37
2018-12-11T13:14:42.397Z,6.83
2018-12-11T13:17:09.927Z,6.00
2018-12-11T13:19:37.764Z,6.27
2018-12-11T13:22:05.300Z,6.63
2018-12-11T13:24:32.849Z,7.30
2018-12-11T13:27:00.405Z,6.80
2018-12-11T13:29:27.951Z,7.60
2018-12-11T13:31:55.474Z,7.70
2018-12-11T13:34:23.263Z,8.27
2018-12-11T13:36:51.466Z,8.20
2018-12-11T13:39:19.004Z,8.93
2018-12-11T13:41:46.581Z,8.53
2018-12-11T13:44:14.325Z,8.67
2018-12-11T13:46:42.159Z,8.67
2018-12-11T13:49:09.795Z,8.33
2018-12-11T13:51:37.932Z,8.83
2018-12-11T13:54:05.473Z,9.37
2018-12-11T13:56:33.081Z,9.17
2018-12-11T13:59:00.611Z,11.93
2018-12-11T14:01:28.413Z,16.17
2018-12-11T14:03:55.937Z,9.13
2018-12-11T14:06:23.623Z,9.07
2018-12-11T14:08:51.142Z,9.87
2018-12-11T14:11:18.711Z,9.37
2018-12-11T14:13:46.244Z,9.07
2018-12-11T14:16:13.883Z,10.10
2018-12-11T14:18:41.398Z,9.80
2018-12-11T14:21:08.974Z,10.10
2018-12-11T14:23:36.496Z,9.13
2018-12-11T14:26:04.052Z,11.07
2018-12-11T14:28:31.575Z,10.77
2018-12-11T14:30:59.208Z,10.37
2018-12-11T14:33:26.732Z,10.53
2018-12-11T14:35:54.287Z,10.23
2018-12-11T14:38:21.903Z,10.07
2018-12-11T14:40:49.454Z,10.47
2018-12-11T14:43:16.980Z,9.33
2018-12-11T14:45:44.593Z,10.60
2018-12-11T14:48:12.115Z,16.33
2018-12-11T14:50:39.660Z,25.37
2018-12-11T14:53:07.183Z,18.03
2018-12-11T14:55:34.756Z,13.30
2018-12-11T14:58:02.296Z,10.73
2018-12-11T15:00:29.852Z,11.00
2018-12-11T15:02:57.664Z,10.80
2018-12-11T15:05:25.336Z,10.47
2018-12-11T15:07:53.015Z,10.37
2018-12-11T15:10:20.957Z,11.67
2018-12-11T15:12:48.951Z,11.37
2018-12-11T15:15:16.488Z,11.07
2018-12-11T15:17:44.056Z,9.67
2018-12-11T15:20:12.020Z,10.97
2018-12-11T15:22:39.581Z,11.07
2018-12-11T15:25:07.106Z,11.37
2018-12-11T15:27:34.863Z,10.90
2018-12-11T15:30:02.401Z,11.33
2018-12-11T15:32:29.987Z,11.40
2018-12-11T15:34:57.516Z,11.43
2018-12-11T15:37:25.096Z,11.68
2018-12-11T15:39:52.620Z,11.37
2018-12-11T15:42:20.211Z,11.37
2018-12-11T15:44:47.744Z,11.60
2018-12-11T15:47:15.326Z,10.73
2018-12-11T15:49:42.862Z,11.70
2018-12-11T15:52:10.424Z,12.47
2018-12-11T15:54:37.987Z,12.97
2018-12-11T15:57:05.565Z,12.50
2018-12-11T15:59:33.102Z,13.57
2018-12-11T16:02:00.802Z,11.57
2018-12-11T16:04:28.323Z,12.20
2018-12-11T16:06:55.918Z,12.97
2018-12-11T16:09:25.411Z,12.27
2018-12-11T16:11:52.964Z,16.03
2018-12-11T16:14:20.497Z,14.17
2018-12-11T16:16:48.055Z,13.77
2018-12-11T16:19:15.577Z,13.10
2018-12-11T16:21:43.135Z,13.67
2018-12-11T16:24:10.661Z,13.60
2018-12-11T16:26:38.209Z,13.47
2018-12-11T16:29:05.731Z,13.97
2018-12-11T16:31:33.279Z,14.30
2018-12-11T16:34:00.804Z,14.37
2018-12-11T16:36:28.359Z,15.10
2018-12-11T16:38:55.891Z,14.93
2018-12-11T16:41:23.439Z,14.40
2018-12-11T16:43:50.972Z,16.23
2018-12-11T16:46:18.502Z,17.10
2018-12-11T16:48:46.057Z,15.23
2018-12-11T16:51:13.595Z,15.87
2018-12-11T16:53:41.147Z,12.47
2018-12-11T16:56:08.672Z,13.60
2018-12-11T16:58:36.227Z,15.30
2018-12-11T17:01:03.766Z,15.73
2018-12-11T17:03:31.320Z,16.00
2018-12-11T17:05:58.858Z,15.93
2018-12-11T17:08:26.413Z,16.13
2018-12-11T17:10:53.936Z,15.37
2018-12-11T17:13:21.485Z,15.80
2018-12-11T17:15:49.281Z,15.27
2018-12-11T17:18:16.833Z,14.27
2018-12-11T17:20:44.535Z,14.73
2018-12-11T17:23:12.088Z,13.80
2018-12-11T17:25:39.655Z,13.50
2018-12-11T17:28:07.284Z,13.73
2018-12-11T17:30:34.821Z,12.47
2018-12-11T17:33:02.377Z,12.50
2018-12-11T17:35:29.908Z,12.70
2018-12-11T17:37:57.464Z,13.90
2018-12-11T17:40:24.993Z,14.57
2018-12-11T17:42:52.545Z,15.10
2018-12-11T17:45:20.063Z,12.27
2018-12-11T17:47:47.619Z,13.07
2018-12-11T17:50:15.135Z,13.93
2018-12-11T17:52:42.688Z,13.63
2018-12-11T17:55:10.220Z,14.50
2018-12-11T17:57:37.751Z,15.37
2018-12-11T18:00:05.838Z,17.23
2018-12-11T18:02:33.944Z,17.00
2018-12-11T18:05:01.495Z,15.60
2018-12-11T18:07:29.024Z,15.27
2018-12-11T18:09:56.570Z,15.40
2018-12-11T18:12:24.091Z,15.87
2018-12-11T18:14:51.644Z,14.73
2018-12-11T18:17:19.172Z,13.73
2018-12-11T18:19:46.812Z,13.27
2018-12-11T18:22:14.344Z,14.27
2018-12-11T18:24:41.896Z,15.80
2018-12-11T18:27:09.419Z,14.27
2018-12-11T18:29:36.969Z,15.00
2018-12-11T18:32:04.651Z,14.07
2018-12-11T18:34:34.174Z,13.80
2018-12-11T18:37:01.789Z,14.13
2018-12-11T18:39:29.341Z,13.80
2018-12-11T18:41:56.987Z,13.33
2018-12-11T18:44:24.619Z,13.57
2018-12-11T18:46:52.167Z,13.63
2018-12-11T18:49:19.722Z,12.73
2018-12-11T18:51:47.249Z,13.70
2018-12-11T18:54:14.802Z,15.07
2018-12-11T18:56:42.320Z,17.37
2018-12-11T18:59:09.876Z,17.50
2018-12-11T19:01:37.410Z,15.47
2018-12-11T19:04:04.973Z,15.40
2018-12-11T19:06:32.498Z,16.73
2018-12-11T19:09:05.606Z,16.07
2018-12-11T19:11:29.671Z,15.67
2018-12-11T19:13:57.403Z,14.93
2018-12-11T19:16:24.927Z,15.23
2018-12-11T19:18:53.240Z,15.57
2018-12-11T19:21:20.763Z,15.77
2018-12-11T19:23:49.027Z,13.77
2018-12-11T19:26:16.580Z,14.27
2018-12-11T19:28:44.104Z,14.63
2018-12-11T19:31:11.659Z,15.07
2018-12-11T19:33:39.183Z,14.03
2018-12-11T19:36:06.727Z,14.67
2018-12-11T19:38:34.253Z,14.93
2018-12-11T19:41:01.801Z,16.33
2018-12-11T19:43:29.359Z,15.73
2018-12-11T19:45:56.932Z,16.37
2018-12-11T19:48:24.455Z,15.93
2018-12-11T19:50:52.016Z,16.03
2018-12-11T19:53:19.539Z,14.83
2018-12-11T19:55:47.085Z,16.20
2018-12-11T19:58:14.604Z,15.70
2018-12-11T20:00:42.156Z,16.67
2018-12-11T20:03:10.800Z,19.07
2018-12-11T20:05:38.543Z,17.07
2018-12-11T20:08:06.068Z,17.20
2018-12-11T20:10:33.624Z,16.30
2018-12-11T20:13:01.168Z,17.92
2018-12-11T20:15:28.757Z,17.20
2018-12-11T20:17:56.288Z,16.27
2018-12-11T20:20:25.499Z,16.63
2018-12-11T20:22:53.071Z,17.17
2018-12-11T20:25:20.625Z,17.37
2018-12-11T20:27:48.235Z,17.43
2018-12-11T20:30:15.781Z,18.47
2018-12-11T20:32:43.301Z,17.73
2018-12-11T20:35:10.851Z,18.90
2018-12-11T20:37:38.375Z,18.17
2018-12-11T20:40:07.297Z,21.30
2018-12-11T20:42:34.820Z,19.53
2018-12-11T20:45:02.460Z,19.83
2018-12-11T20:47:29.985Z,20.67
2018-12-11T20:49:57.550Z,22.42
2018-12-11T20:52:25.085Z,21.77
2018-12-11T20:54:52.606Z,19.73
2018-12-11T20:57:20.156Z,19.27
2018-12-11T20:59:47.683Z,19.70
2018-12-11T21:02:15.244Z,18.98
2018-12-11T21:04:42.776Z,22.93
2018-12-11T21:07:10.621Z,18.45
2018-12-11T21:09:39.940Z,16.70
2018-12-11T21:12:07.656Z,16.70
2018-12-11T21:14:35.200Z,17.32
2018-12-11T21:17:02.762Z,17.15
2018-12-11T21:19:30.296Z,17.42
2018-12-11T21:21:57.856Z,17.82
2018-12-11T21:24:25.755Z,17.15
2018-12-11T21:26:53.660Z,17.65
2018-12-11T21:29:21.369Z,18.48
2018-12-11T21:31:48.936Z,17.33
2018-12-11T21:34:16.476Z,16.90
2018-12-11T21:36:44.032Z,18.23
2018-12-11T21:39:11.555Z,17.67
2018-12-11T21:41:39.111Z,16.63
2018-12-11T21:44:06.647Z,16.77
2018-12-11T21:46:34.275Z,16.43
2018-12-11T21:49:01.803Z,16.48
2018-12-11T21:51:29.346Z,17.10
2018-12-11T21:53:56.871Z,15.80
2018-12-11T21:56:24.428Z,15.68
2018-12-11T21:58:51.946Z,18.00
2018-12-11T22:01:19.505Z,16.67
2018-12-11T22:03:47.032Z,16.80
2018-12-11T22:06:14.856Z,16.93
2018-12-11T22:08:42.385Z,16.67
2018-12-11T22:11:09.940Z,16.30
2018-12-11T22:13:37.467Z,16.60
2018-12-11T22:16:05.022Z,15.68
2018-12-11T22:18:32.615Z,15.58
2018-12-11T22:21:00.236Z,15.90
2018-12-11T22:23:29.174Z,16.52
2018-12-11T22:25:56.911Z,15.23
2018-12-11T22:28:24.476Z,16.55
2018-12-11T22:30:51.999Z,15.55
2018-12-11T22:33:19.551Z,16.57
2018-12-11T22:35:47.157Z,16.80
2018-12-11T22:38:14.716Z,17.10
2018-12-11T22:40:42.247Z,17.15
2018-12-11T22:43:09.807Z,17.65
2018-12-11T22:45:37.328Z,17.23
2018-12-11T22:48:04.879Z,16.62
2018-12-11T22:50:32.412Z,17.82
2018-12-11T22:52:59.975Z,18.75
2018-12-11T22:55:27.506Z,16.75
2018-12-11T22:57:55.060Z,18.05
2018-12-11T23:00:22.672Z,17.00
2018-12-11T23:02:50.215Z,17.47
2018-12-11T23:05:17.742Z,17.57
2018-12-11T23:07:45.303Z,16.02
2018-12-11T23:10:12.831Z,16.15
2018-12-11T23:12:40.388Z,17.07
2018-12-11T23:15:07.911Z,17.67
2018-12-11T23:17:35.462Z,16.35
2018-12-11T23:20:03.450Z,17.77
2018-12-11T23:22:31.006Z,15.72
2018-12-11T23:24:58.814Z,16.35
2018-12-11T23:27:26.374Z,17.25
2018-12-11T23:29:53.903Z,16.82
2018-12-11T23:32:21.465Z,17.05
2018-12-11T23:34:50.367Z,18.23
2018-12-11T23:37:17.906Z,17.42
2018-12-11T23:39:45.464Z,17.48
2018-12-11T23:42:12.990Z,17.48
2018-12-11T23:44:40.549Z,18.03
2018-12-11T23:47:08.075Z,17.70
2018-12-11T23:49:35.636Z,18.10
2018-12-11T23:52:03.240Z,19.02
2018-12-11T23:54:30.802Z,17.65
2018-12-11T23:56:58.331Z,18.25
2018-12-11T23:59:29.065Z,18.50
